createdAt,value
2018-03-22T00:00:02.719Z,2.6
2018-03-22T00:05:03.054Z,2.6
2018-03-22T00:10:07.906Z,2.6
2018-03-22T00:15:25.957Z,2.6
2018-03-22T00:20:08.446Z,2.6
2018-03-22T00:25:22.886Z,2.6
2018-03-22T00:30:10.892Z,2.6
2018-03-22T00:35:12.710Z,2.6
2018-03-22T00:40:04.984Z,2.6
2018-03-22T00:45:02.847Z,2.6
2018-03-22T00:50:03.143Z,2.7
2018-03-22T00:55:07.531Z,2.7
2018-03-22T01:00:18.115Z,2.7
2018-03-22T01:05:10.832Z,2.7
2018-03-22T01:10:02.575Z,2.7
2018-03-22T01:15:02.847Z,2.7
2018-03-22T01:20:26.139Z,2.6
2018-03-22T01:25:04.972Z,2.6
2018-03-22T01:30:05.816Z,2.6
2018-03-22T01:35:17.728Z,2.6
2018-03-22T01:40:05.055Z,2.6
2018-03-22T01:45:07.863Z,2.7
2018-03-22T01:50:03.294Z,2.7
2018-03-22T01:55:02.444Z,2.6
2018-03-22T02:00:05.298Z,2.6
2018-03-22T02:05:05.534Z,2.6
2018-03-22T02:10:03.321Z,2.5
2018-03-22T02:15:05.133Z,2.5
2018-03-22T02:20:35.376Z,2.5
2018-03-22T02:25:02.697Z,2.5
2018-03-22T02:30:10.591Z,2.4
2018-03-22T02:35:05.782Z,2.4
2018-03-22T02:40:02.743Z,2.4
2018-03-22T02:45:02.970Z,2.3
2018-03-22T02:50:08.404Z,2.3
2018-03-22T02:55:15.202Z,2.3
2018-03-22T03:00:12.721Z,2.4
2018-03-22T03:05:02.800Z,2.4
2018-03-22T03:10:05.165Z,2.4
2018-03-22T03:15:35.709Z,2.4
2018-03-22T03:20:10.714Z,2.4
2018-03-22T03:25:04.950Z,2.4
2018-03-22T03:30:03.304Z,2.4
2018-03-22T03:35:05.213Z,2.3
2018-03-22T03:40:03.045Z,2.3
2018-03-22T03:45:05.785Z,2.3
2018-03-22T03:50:05.716Z,2.3
2018-03-22T03:55:07.617Z,2.3
2018-03-22T04:00:02.928Z,2.3
2018-03-22T04:05:02.394Z,2.3
2018-03-22T04:10:05.752Z,2.2
2018-03-22T04:15:02.565Z,2.2
2018-03-22T04:20:05.502Z,2.2
2018-03-22T04:25:05.794Z,2.2
2018-03-22T04:30:13.268Z,2.1
2018-03-22T04:35:02.429Z,2.1
2018-03-22T04:40:08.283Z,2.1
2018-03-22T04:45:32.872Z,2.1
2018-03-22T04:50:18.348Z,2.1
2018-03-22T04:55:02.496Z,2.1
2018-03-22T05:00:05.363Z,2.1
2018-03-22T05:05:03.159Z,2.1
2018-03-22T05:10:08.049Z,2.2
2018-03-22T05:15:05.857Z,2.2
2018-03-22T05:20:10.909Z,2.2
2018-03-22T05:25:07.522Z,2.3
2018-03-22T05:30:10.404Z,2.3
2018-03-22T05:35:05.566Z,2.3
2018-03-22T05:40:02.395Z,2.3
2018-03-22T05:45:10.325Z,2.3
2018-03-22T05:50:07.698Z,2.4
2018-03-22T05:55:02.976Z,2.4
2018-03-22T06:00:03.284Z,2.4
2018-03-22T06:05:05.104Z,2.5
2018-03-22T06:10:07.850Z,2.6
2018-03-22T06:15:05.591Z,2.6
2018-03-22T06:20:05.487Z,2.6
2018-03-22T06:25:08.281Z,2.6
2018-03-22T06:30:25.411Z,2.7
2018-03-22T06:35:05.278Z,2.7
2018-03-22T06:40:10.751Z,2.6
2018-03-22T06:45:02.386Z,2.6
2018-03-22T06:50:23.044Z,2.5
2018-03-22T06:55:25.758Z,2.4
2018-03-22T07:00:08.166Z,2.4
2018-03-22T07:05:05.854Z,2.3
2018-03-22T07:10:05.165Z,2.3
2018-03-22T07:15:02.887Z,2.3
2018-03-22T07:20:05.895Z,2.2
2018-03-22T07:25:10.112Z,2.1
2018-03-22T07:30:10.034Z,2.1
2018-03-22T07:35:05.326Z,2.1
2018-03-22T07:40:08.244Z,2.1
2018-03-22T07:45:03.297Z,2.1
2018-03-22T07:50:07.703Z,2.3
2018-03-22T07:55:02.846Z,2.3
2018-03-22T08:00:03.169Z,2.4
2018-03-22T08:05:04.965Z,2.4
2018-03-22T08:10:05.244Z,2.3
2018-03-22T08:15:25.848Z,2.1
2018-03-22T08:20:03.203Z,2.2
2018-03-22T08:25:05.037Z,2.1
2018-03-22T08:30:02.536Z,2.1
2018-03-22T08:35:07.743Z,2.1
2018-03-22T08:40:05.115Z,2.1
2018-03-22T08:45:10.483Z,2
2018-03-22T08:50:05.399Z,2.1
2018-03-22T08:55:05.644Z,2.1
2018-03-22T09:00:15.624Z,2.1
2018-03-22T09:05:03.296Z,2.1
2018-03-22T09:10:10.684Z,2.1
2018-03-22T09:15:22.667Z,2.1
2018-03-22T09:20:05.575Z,2.2
2018-03-22T09:25:10.946Z,2.2
2018-03-22T09:30:05.783Z,2.2
2018-03-22T09:35:10.275Z,2.2
2018-03-22T09:40:03.064Z,2.2
2018-03-22T09:45:04.927Z,2.2
2018-03-22T09:50:05.805Z,2.2
2018-03-22T09:55:10.178Z,2.2
2018-03-22T10:00:02.447Z,2.2
2018-03-22T10:05:07.712Z,2.3
2018-03-22T10:10:04.955Z,2.3
2018-03-22T10:15:10.350Z,2.4
2018-03-22T10:20:07.877Z,2.5
2018-03-22T10:25:03.117Z,2.5
2018-03-22T10:30:04.958Z,2.5
2018-03-22T10:35:10.368Z,2.5
2018-03-22T10:40:10.766Z,2.5
2018-03-22T10:45:04.935Z,2.6
2018-03-22T10:50:13.477Z,2.7
2018-03-22T10:55:05.059Z,2.8
2018-03-22T11:00:08.387Z,2.8
2018-03-22T11:05:02.665Z,2.8
2018-03-22T11:10:22.811Z,2.8
2018-03-22T11:15:02.793Z,2.7
2018-03-22T11:25:05.856Z,3
2018-03-22T11:30:03.129Z,2.9
2018-03-22T11:35:04.957Z,2.9
2018-03-22T11:40:05.308Z,2.9
2018-03-22T11:45:18.294Z,2.8
2018-03-22T11:50:02.613Z,2.9
2018-03-22T11:55:02.909Z,3
2018-03-22T12:00:03.203Z,3
2018-03-22T12:05:02.459Z,3
2018-03-22T12:10:05.784Z,3.1
2018-03-22T12:15:10.089Z,3.1
2018-03-22T12:20:02.477Z,3.1
2018-03-22T12:25:02.806Z,3.2
2018-03-22T12:30:08.290Z,3.1
2018-03-22T12:35:04.995Z,3.3
2018-03-22T12:40:05.298Z,3.4
2018-03-22T12:45:18.239Z,3.5
2018-03-22T12:50:02.587Z,3.5
2018-03-22T12:55:10.444Z,3.5
2018-03-22T13:00:17.986Z,3.6
2018-03-22T13:05:20.744Z,3.6
2018-03-22T13:10:05.139Z,3.7
2018-03-22T13:15:02.849Z,3.7
2018-03-22T13:20:05.807Z,3.7
2018-03-22T13:25:05.138Z,3.7
2018-03-22T13:30:07.621Z,3.7
2018-03-22T13:35:02.790Z,3.7
2018-03-22T13:40:05.128Z,3.9
2018-03-22T13:45:02.898Z,3.9
2018-03-22T13:50:23.534Z,3.9
2018-03-22T13:55:02.474Z,3.9
2018-03-22T14:00:02.816Z,3.9
2018-03-22T14:05:13.299Z,3.8
2018-03-22T14:10:08.177Z,3.9
2018-03-22T14:15:04.990Z,3.9
2018-03-22T14:20:12.651Z,3.9
2018-03-22T14:25:28.074Z,3.9
2018-03-22T14:30:02.427Z,3.9
2018-03-22T14:35:02.738Z,3.9
2018-03-22T14:40:02.596Z,3.9
2018-03-22T14:45:05.459Z,3.9
2018-03-22T14:50:02.858Z,3.9
2018-03-22T14:55:10.742Z,3.9
2018-03-22T15:00:08.163Z,3.9
2018-03-22T15:05:07.423Z,3.9
2018-03-22T15:10:03.267Z,3.9
2018-03-22T15:15:02.698Z,4
2018-03-22T15:20:03.071Z,4
2018-03-22T15:25:07.478Z,4
2018-03-22T15:30:05.458Z,4
2018-03-22T15:35:05.735Z,4.1
2018-03-22T15:40:02.746Z,4
2018-03-22T15:45:07.972Z,4
2018-03-22T15:50:03.400Z,4
2018-03-22T15:55:07.642Z,4
2018-03-22T16:00:02.969Z,4
2018-03-22T16:05:03.279Z,3.9
2018-03-22T16:10:03.037Z,4
2018-03-22T16:15:02.438Z,3.9
2018-03-22T16:20:02.816Z,3.9
2018-03-22T16:25:08.142Z,3.9
2018-03-22T16:30:07.546Z,4
2018-03-22T16:35:02.837Z,3.9
2018-03-22T16:40:02.859Z,4
2018-03-22T16:45:15.899Z,3.9
2018-03-22T16:50:15.951Z,3.9
2018-03-22T16:55:05.076Z,3.9
2018-03-22T17:00:02.437Z,3.9
2018-03-22T17:05:02.770Z,3.9
2018-03-22T17:10:02.616Z,3.9
2018-03-22T17:15:12.982Z,3.9
2018-03-22T17:20:04.937Z,3.9
2018-03-22T17:25:07.783Z,3.8
2018-03-22T17:30:25.859Z,3.8
2018-03-22T17:35:08.239Z,3.9
2018-03-22T17:40:10.641Z,3.8
2018-03-22T17:45:31.106Z,3.8
2018-03-22T17:50:10.068Z,3.8
2018-03-22T17:55:02.737Z,3.8
2018-03-22T18:00:13.160Z,0.6
2018-03-22T18:05:36.236Z,3.8
2018-03-22T18:10:03.020Z,3.8
2018-03-22T18:15:05.889Z,3.8
2018-03-22T18:20:03.326Z,3.8
2018-03-22T18:25:02.579Z,3.8
2018-03-22T18:30:10.507Z,3.9
2018-03-22T18:35:05.771Z,4
2018-03-22T18:40:17.848Z,3.9
2018-03-22T18:45:02.911Z,3.9
2018-03-22T18:50:08.362Z,3.9
2018-03-22T18:55:05.019Z,4
2018-03-22T19:00:03.315Z,4
2018-03-22T19:05:05.155Z,4
2018-03-22T19:10:15.634Z,4
2018-03-22T19:15:03.199Z,4
2018-03-22T19:20:05.187Z,4
2018-03-22T19:25:05.474Z,4
2018-03-22T19:30:10.408Z,4
2018-03-22T19:35:05.575Z,4.1
2018-03-22T19:40:04.910Z,4.1
2018-03-22T19:45:02.987Z,4.1
2018-03-22T19:50:08.340Z,4.1
2018-03-22T19:55:05.029Z,4.2
2018-03-22T20:00:08.604Z,4.2
2018-03-22T20:05:05.195Z,4.2
2018-03-22T20:10:05.525Z,4.2
2018-03-22T20:15:02.365Z,4.2
2018-03-22T20:20:02.730Z,4.2
2018-03-22T20:25:35.930Z,4.3
2018-03-22T20:30:03.245Z,4.3
2018-03-22T20:35:02.525Z,4.3
2018-03-22T20:40:08.334Z,4.3
2018-03-22T20:45:02.676Z,4.3
2018-03-22T20:50:03.035Z,4.4
2018-03-22T20:55:03.315Z,4.4
2018-03-22T21:00:07.700Z,4.4
2018-03-22T21:05:05.363Z,4.4
2018-03-22T21:10:26.007Z,4.5
2018-03-22T21:15:23.541Z,4.5
2018-03-22T21:20:07.996Z,4.5
2018-03-22T21:25:05.739Z,4.5
2018-03-22T21:30:03.039Z,4.5
2018-03-22T21:35:22.708Z,4.5
2018-03-22T21:40:05.055Z,4.6
2018-03-22T21:45:02.776Z,4.6
2018-03-22T21:50:05.684Z,4.6
2018-03-22T21:55:04.950Z,4.6
2018-03-22T22:00:08.350Z,4.6
2018-03-22T22:05:10.133Z,4.6
2018-03-22T22:10:05.464Z,4.7
2018-03-22T22:15:10.918Z,4.6
2018-03-22T22:20:05.834Z,4.7
2018-03-22T22:25:05.224Z,4.6
2018-03-22T22:30:15.155Z,4.7
2018-03-22T22:35:05.365Z,4.7
2018-03-22T22:40:06.014Z,4.6
2018-03-22T22:45:10.022Z,4.6
2018-03-22T22:50:08.484Z,4.7
2018-03-22T22:55:17.949Z,4.7
2018-03-22T23:00:15.954Z,4.7
2018-03-22T23:05:22.828Z,4.7
2018-03-22T23:10:05.239Z,4.7
2018-03-22T23:15:05.564Z,4.7
2018-03-22T23:20:10.567Z,4.7
2018-03-22T23:25:05.827Z,4.7
2018-03-22T23:30:03.184Z,4.6
2018-03-22T23:35:02.411Z,4.6
2018-03-22T23:40:05.734Z,4.6
2018-03-22T23:45:04.943Z,4.6
2018-03-22T23:50:03.283Z,4.6
2018-03-22T23:55:05.036Z,4.5
